06:46
Airports
History
Links
Donate
Help keep this website running!
PayPal
Bitcoin
Information on this page is community maintained and may be outdated or inaccurate and is intended for reference only or PC simulator navigating.
Always use approved charts for navigating.
VICX
KANPUR CHAKERI
KANPUR CHAKERI (VICX)
Kanpur, Uttar Pradesh, India (208008)
(C)
Lat/Lng:26° 24' 15.78" N / 80° 24' 51.19" E
26.404384 / 80.414219
Elevation:405'ft 123mMSL
ID / ICAO:VICX
Runways:1
Longest:(09-27) 2,800.3m 9,187ft Concrete
Controlled:Yes
Distance To
Airport ID:
Airport Radio Frequencies
Tower: 123.5
Approach: 122.7
Nearby VORs <50NM
Nearby NDBs
METARUpdated 04-08-16 05:30 GMT
Altimeter: 29.83
Visibility: 3.7 statute miles
Wind: 6 knots (290°)
Temp: 31°c 88°f
Humidity: 33.3%

METAR: VICX 080530Z 29006KT 6000 NSC 31/13 Q1010 NOSIG

(Powered by phpweather)
Runway 09 / 27
Dimensions:2800.3 x 45.7m 9187' x 150'ft
Surface:Concrete
Runway 09 [A]Runway 27 [B]
Heading:088°TH 268°TH
Lat:
Lng:
26° 24' 14.89"N
80° 24' 0.52"E
26° 24' 16.67"N
80° 25' 41.86"E
TDZ:Yes, lighted
User Notes and Comments
Google Map
Nearby Airports
(C) KANPUR 4.0 NM
VIKA NW 309°
(U) KALYANPUR 13.8 NM
VI75 NW 305°
(C) LUCKNOW 38.3 NM
VILK (WX) NE 50°
(U) BAKSHI KA TALAB 50.0 NM
VIBL NE 36°
(C) FURSATGANJ 60.8 NM
VIRB E 100°
(C) ALLAHABAD 105.8 NM
VIAL (WX) SE 129°
(C) KHAJURAHO 113.9 NM
VAKJ SSW 195°
VFR Chart
Flight Planning at SkyVector.com